Time;durP1;ratioP1;P1;durP2;ratioP2;P2;SDS_P1;SDS_P2;PMS_P1;PMS_P2;Temp;Humidity;BMP_temperature;BMP_pressure;BME280_temperature;BME280_humidity;BME280_pressure;Samples;Min_cycle;Max_cycle;Signal;HPM_P1;HPM_P2
2022/07/28 00:01:09;;;;;;;5.47;2.05;;;;;;;;;;5053034;28;20049;-69
2022/07/28 00:03:35;;;;;;;2.47;1.90;;;;;;;;;;5053026;28;20468;-68
2022/07/28 00:06:02;;;;;;;3.65;2.17;;;;;;;;;;5052568;28;20493;-68
2022/07/28 00:08:28;;;;;;;3.53;1.75;;;;;;;;;;5052585;28;20524;-68
2022/07/28 00:10:54;;;;;;;5.05;1.95;;;;;;;;;;5052335;28;20048;-68
2022/07/28 00:13:21;;;;;;;3.25;1.70;;;;;;;;;;5052773;28;20118;-68
2022/07/28 00:15:47;;;;;;;2.83;1.70;;;;;;;;;;5052376;28;20079;-68
2022/07/28 00:18:14;;;;;;;2.05;1.60;;;;;;;;;;5044837;28;20137;-68
2022/07/28 00:20:41;;;;;;;2.73;1.40;;;;;;;;;;5052477;28;20435;-68
2022/07/28 00:23:07;;;;;;;2.10;1.45;;;;;;;;;;5052160;28;20324;-68
2022/07/28 00:25:34;;;;;;;3.63;1.70;;;;;;;;;;5052497;28;20084;-69
2022/07/28 00:28:00;;;;;;;2.78;1.48;;;;;;;;;;5052387;28;20057;-68
2022/07/28 00:30:26;;;;;;;2.75;1.63;;;;;;;;;;5052492;28;20114;-69
2022/07/28 00:32:53;;;;;;;2.72;1.55;;;;;;;;;;5052338;28;20390;-68
2022/07/28 00:35:19;;;;;;;3.22;1.42;;;;;;;;;;5052040;28;20072;-68
2022/07/28 00:37:57;;;;;;;3.53;1.55;;;;;;;;;;5052115;28;20095;-68
2022/07/28 00:41:09;;;;;;;4.57;1.85;;;;;;;;;;5052002;28;20077;-68
2022/07/28 00:43:10;;;;;;;2.23;1.43;;;;;;;;;;5051977;28;20087;-68
2022/07/28 00:45:36;;;;;;;3.70;1.58;;;;;;;;;;5051742;28;20118;-68
2022/07/28 00:48:03;;;;;;;5.03;1.48;;;;;;;;;;5052023;28;20049;-68
2022/07/28 00:50:29;;;;;;;5.47;1.20;;;;;;;;;;5051803;28;20579;-68
2022/07/28 00:52:56;;;;;;;3.22;1.35;;;;;;;;;;5051751;28;20484;-69
2022/07/28 00:55:23;;;;;;;4.15;1.45;;;;;;;;;;5052003;28;20084;-68
2022/07/28 00:57:49;;;;;;;2.58;1.30;;;;;;;;;;5051868;28;20056;-69
2022/07/28 01:00:16;;;;;;;2.75;1.48;;;;;;;;;;5050487;28;20077;-68
2022/07/28 01:02:45;;;;;;;3.10;1.42;;;;;;;;;;5051729;28;20128;-68
2022/07/28 01:05:13;;;;;;;5.28;1.65;;;;;;;;;;5051657;28;20412;-68
2022/07/28 01:07:40;;;;;;;3.33;1.63;;;;;;;;;;5051834;28;20087;-69
2022/07/28 01:10:18;;;;;;;5.10;1.30;;;;;;;;;;5044931;28;20076;-69
2022/07/28 01:12:54;;;;;;;4.57;1.75;;;;;;;;;;5051577;28;20075;-69
2022/07/28 01:15:40;;;;;;;3.00;1.48;;;;;;;;;;5051809;28;20153;-69
2022/07/28 01:18:07;;;;;;;1.80;1.33;;;;;;;;;;5051608;28;20056;-69
2022/07/28 01:20:51;;;;;;;2.33;1.20;;;;;;;;;;5051417;28;20085;-69
2022/07/28 01:23:26;;;;;;;3.75;1.27;;;;;;;;;;5051410;28;20107;-69
2022/07/28 01:25:56;;;;;;;2.80;1.50;;;;;;;;;;5051333;28;20118;-69
2022/07/28 01:28:27;;;;;;;3.17;1.33;;;;;;;;;;5051648;28;20091;-69
2022/07/28 01:30:56;;;;;;;2.35;1.60;;;;;;;;;;5051613;28;20088;-69
2022/07/28 01:33:41;;;;;;;3.95;1.85;;;;;;;;;;5051329;28;20053;-69
2022/07/28 01:36:09;;;;;;;2.47;1.55;;;;;;;;;;5051174;28;20541;-69
2022/07/28 01:38:37;;;;;;;4.70;2.20;;;;;;;;;;5051641;28;20090;-69
2022/07/28 01:41:05;;;;;;;3.95;2.25;;;;;;;;;;5051229;28;20544;-69
2022/07/28 01:43:33;;;;;;;3.90;1.50;;;;;;;;;;5051187;28;20049;-69
2022/07/28 01:46:00;;;;;;;1.92;1.30;;;;;;;;;;5051198;28;20093;-69
2022/07/28 01:48:28;;;;;;;4.32;1.73;;;;;;;;;;5051553;28;20052;-69
2022/07/28 01:50:55;;;;;;;1.70;1.20;;;;;;;;;;5051727;28;20099;-69
2022/07/28 01:53:22;;;;;;;2.95;1.48;;;;;;;;;;5051187;28;20405;-69
2022/07/28 01:55:49;;;;;;;4.28;1.77;;;;;;;;;;5051062;28;20573;-69
2022/07/28 01:58:17;;;;;;;2.20;1.63;;;;;;;;;;5051290;28;20102;-69
2022/07/28 02:00:46;;;;;;;3.60;1.90;;;;;;;;;;5051358;28;20136;-69
2022/07/28 02:03:13;;;;;;;1.90;1.60;;;;;;;;;;5050996;28;20102;-69
2022/07/28 02:05:41;;;;;;;3.13;1.73;;;;;;;;;;5054171;28;20052;-69
2022/07/28 02:08:07;;;;;;;;;;;;;;;;;;5055291;28;20479;-69
2022/07/28 02:10:34;;;;;;;2.53;1.80;;;;;;;;;;5054728;28;19921;-69
2022/07/28 02:13:01;;;;;;;3.72;1.67;;;;;;;;;;5054811;28;20080;-69
2022/07/28 02:15:29;;;;;;;2.13;1.60;;;;;;;;;;5054943;28;20091;-69
2022/07/28 02:17:56;;;;;;;3.30;2.00;;;;;;;;;;5054611;28;20128;-69
2022/07/28 02:20:23;;;;;;;2.42;1.77;;;;;;;;;;5054867;28;20081;-69
2022/07/28 02:22:51;;;;;;;3.42;1.90;;;;;;;;;;5054601;28;20041;-69
2022/07/28 02:25:18;;;;;;;2.53;1.88;;;;;;;;;;5054898;28;20137;-69
2022/07/28 02:27:51;;;;;;;3.50;2.00;;;;;;;;;;5054571;28;20079;-69
2022/07/28 02:30:40;;;;;;;2.05;1.60;;;;;;;;;;5054591;28;20458;-69
2022/07/28 02:33:11;;;;;;;2.67;1.63;;;;;;;;;;5053893;28;20102;-69
2022/07/28 02:35:48;;;;;;;3.90;1.48;;;;;;;;;;5054530;28;20048;-69
2022/07/28 02:38:23;;;;;;;2.92;1.70;;;;;;;;;;5054682;28;20060;-69
2022/07/28 02:40:51;;;;;;;3.85;1.80;;;;;;;;;;5054133;28;20081;-69
2022/07/28 02:43:19;;;;;;;3.10;1.83;;;;;;;;;;5054489;28;20468;-69
2022/07/28 02:45:48;;;;;;;4.28;2.30;;;;;;;;;;5053961;28;20386;-69
2022/07/28 02:48:17;;;;;;;3.38;2.00;;;;;;;;;;5054242;28;20052;-69
2022/07/28 02:50:45;;;;;;;4.72;2.00;;;;;;;;;;5054101;28;20516;-69
2022/07/28 02:53:13;;;;;;;;;;;;;;;;;;5054716;28;20045;-69
2022/07/28 02:55:41;;;;;;;2.63;1.73;;;;;;;;;;5054211;28;19927;-69
2022/07/28 02:58:09;;;;;;;3.70;1.90;;;;;;;;;;5054127;28;20069;-69
2022/07/28 03:00:36;;;;;;;3.67;1.52;;;;;;;;;;5053914;28;20132;-69
2022/07/28 03:03:03;;;;;;;2.13;1.58;;;;;;;;;;5054113;28;20073;-69
2022/07/28 03:05:29;;;;;;;3.05;1.90;;;;;;;;;;5053842;28;20143;-69
2022/07/28 03:07:58;;;;;;;3.87;1.83;;;;;;;;;;5053683;28;20056;-69
2022/07/28 03:10:26;;;;;;;1.77;1.40;;;;;;;;;;5054033;28;20381;-69
2022/07/28 03:13:00;;;;;;;4.43;1.77;;;;;;;;;;5053757;28;20068;-69
2022/07/28 03:15:26;;;;;;;3.53;2.20;;;;;;;;;;5053197;28;20077;-69
2022/07/28 03:17:53;;;;;;;3.88;1.88;;;;;;;;;;5053281;28;20099;-69
2022/07/28 03:20:19;;;;;;;3.67;1.90;;;;;;;;;;5053728;28;20107;-69
2022/07/28 03:22:46;;;;;;;3.15;1.45;;;;;;;;;;5053420;28;20080;-69
2022/07/28 03:25:22;;;;;;;2.72;1.60;;;;;;;;;;5053498;28;20080;-69
2022/07/28 03:27:49;;;;;;;4.18;1.85;;;;;;;;;;5053593;28;20052;-69
2022/07/28 03:30:21;;;;;;;3.38;1.75;;;;;;;;;;5053650;28;20087;-69
2022/07/28 03:32:55;;;;;;;2.47;1.75;;;;;;;;;;5053562;28;20048;-69
2022/07/28 03:35:22;;;;;;;3.92;2.45;;;;;;;;;;5053541;28;20140;-69
2022/07/28 03:38:01;;;;;;;4.32;2.15;;;;;;;;;;5053207;28;20485;-69
2022/07/28 03:40:28;;;;;;;4.60;2.65;;;;;;;;;;5051940;28;20049;-69
2022/07/28 03:42:55;;;;;;;2.08;1.80;;;;;;;;;;5053086;28;20068;-69
2022/07/28 03:45:22;;;;;;;3.13;2.42;;;;;;;;;;5053027;28;20090;-68
2022/07/28 03:47:50;;;;;;;2.75;1.70;;;;;;;;;;5052804;28;20109;-69
2022/07/28 03:50:16;;;;;;;4.70;2.28;;;;;;;;;;5053181;28;20107;-69
2022/07/28 03:52:43;;;;;;;3.95;2.17;;;;;;;;;;5053211;28;20056;-69
2022/07/28 03:55:10;;;;;;;3.03;1.95;;;;;;;;;;5053102;28;20110;-69
2022/07/28 03:57:37;;;;;;;4.50;2.30;;;;;;;;;;5052903;28;20076;-69
2022/07/28 04:00:04;;;;;;;5.90;2.33;;;;;;;;;;5052572;28;20069;-68
2022/07/28 04:02:35;;;;;;;2.90;2.15;;;;;;;;;;5053032;28;20063;-69
2022/07/28 04:05:02;;;;;;;7.43;2.57;;;;;;;;;;5052942;28;20048;-68
2022/07/28 04:07:28;;;;;;;2.78;2.30;;;;;;;;;;5052635;28;20092;-69
2022/07/28 04:09:54;;;;;;;3.15;2.40;;;;;;;;;;5052821;28;20155;-69
2022/07/28 04:12:21;;;;;;;2.90;2.25;;;;;;;;;;5052899;28;20080;-68
2022/07/28 04:14:48;;;;;;;5.25;2.20;;;;;;;;;;5051228;28;20056;-68
2022/07/28 04:17:15;;;;;;;2.40;1.92;;;;;;;;;;5039646;28;20080;-68
2022/07/28 04:19:41;;;;;;;3.50;2.20;;;;;;;;;;5052409;28;20076;-69
2022/07/28 04:22:07;;;;;;;3.22;2.15;;;;;;;;;;5052540;28;20072;-68
2022/07/28 04:24:34;;;;;;;3.47;2.30;;;;;;;;;;5052584;28;20103;-69
2022/07/28 04:27:00;;;;;;;4.55;2.45;;;;;;;;;;5051877;28;20088;-68
2022/07/28 04:29:27;;;;;;;2.90;2.63;;;;;;;;;;5052376;28;20110;-69
2022/07/28 04:31:53;;;;;;;4.03;2.05;;;;;;;;;;5052467;28;20080;-69
2022/07/28 04:34:20;;;;;;;3.20;2.10;;;;;;;;;;5052395;28;20053;-69
2022/07/28 04:36:46;;;;;;;5.90;2.13;;;;;;;;;;5052333;28;20076;-68
2022/07/28 04:39:12;;;;;;;5.30;2.20;;;;;;;;;;5052109;28;20057;-69
2022/07/28 04:41:40;;;;;;;4.03;2.50;;;;;;;;;;5052025;28;20382;-68
2022/07/28 04:44:09;;;;;;;2.50;2.30;;;;;;;;;;5052226;28;20153;-69
2022/07/28 04:46:36;;;;;;;4.40;2.30;;;;;;;;;;5051944;28;20107;-69
2022/07/28 04:49:03;;;;;;;3.17;2.25;;;;;;;;;;5052281;28;20049;-69
2022/07/28 04:51:29;;;;;;;3.53;2.67;;;;;;;;;;5051874;28;20053;-69
2022/07/28 04:53:55;;;;;;;3.05;2.22;;;;;;;;;;5052118;28;20084;-69
2022/07/28 04:56:22;;;;;;;3.45;2.28;;;;;;;;;;5051563;28;20068;-69
2022/07/28 04:58:48;;;;;;;2.72;2.08;;;;;;;;;;5051976;28;20124;-69
2022/07/28 05:01:15;;;;;;;3.85;2.03;;;;;;;;;;5051966;28;20087;-69
2022/07/28 05:03:41;;;;;;;3.45;1.90;;;;;;;;;;5051969;28;20077;-69
2022/07/28 05:06:08;;;;;;;3.13;2.58;;;;;;;;;;5051678;28;20140;-69
2022/07/28 05:08:34;;;;;;;3.58;2.42;;;;;;;;;;5051568;28;20048;-69
2022/07/28 05:11:01;;;;;;;4.68;2.40;;;;;;;;;;5051876;28;20053;-69
2022/07/28 05:13:27;;;;;;;3.63;2.00;;;;;;;;;;5051708;28;20044;-69
2022/07/28 05:15:59;;;;;;;5.18;2.70;;;;;;;;;;5051519;28;20052;-69
2022/07/28 05:18:26;;;;;;;3.80;2.00;;;;;;;;;;5051768;28;20073;-69
2022/07/28 05:20:52;;;;;;;4.47;2.55;;;;;;;;;;5051425;28;20136;-69
2022/07/28 05:23:18;;;;;;;5.03;2.35;;;;;;;;;;5051720;28;20048;-69
2022/07/28 05:25:45;;;;;;;3.83;2.63;;;;;;;;;;5051655;28;20488;-69
2022/07/28 05:28:11;;;;;;;2.63;1.85;;;;;;;;;;5051452;28;20520;-69
2022/07/28 05:30:38;;;;;;;2.38;1.85;;;;;;;;;;5051348;28;20087;-68
2022/07/28 05:33:04;;;;;;;4.10;2.07;;;;;;;;;;5051429;28;20072;-69
2022/07/28 05:35:31;;;;;;;3.80;2.00;;;;;;;;;;5051374;28;20470;-69
2022/07/28 05:37:57;;;;;;;3.50;2.35;;;;;;;;;;5051245;28;20037;-69
2022/07/28 05:40:25;;;;;;;5.25;2.13;;;;;;;;;;5054242;28;20335;-69
2022/07/28 05:42:51;;;;;;;;;;;;;;;;;;5056053;28;20072;-69
2022/07/28 05:45:18;;;;;;;2.35;1.90;;;;;;;;;;5055309;28;20496;-69
2022/07/28 05:47:48;;;;;;;3.38;1.90;;;;;;;;;;5055093;28;20095;-69
2022/07/28 05:50:16;;;;;;;3.55;1.95;;;;;;;;;;5055287;28;20084;-68
2022/07/28 05:52:43;;;;;;;4.05;1.80;;;;;;;;;;5055414;28;20057;-70
2022/07/28 05:55:10;;;;;;;3.85;1.83;;;;;;;;;;5055308;28;20084;-70
2022/07/28 05:57:37;;;;;;;3.53;1.98;;;;;;;;;;5055251;28;20045;-69
2022/07/28 06:00:11;;;;;;;5.25;2.05;;;;;;;;;;5033694;28;20145;-70
2022/07/28 06:02:38;;;;;;;3.35;1.90;;;;;;;;;;5035699;28;20065;-70
2022/07/28 06:05:05;;;;;;;3.90;2.10;;;;;;;;;;5034448;28;20079;-70
2022/07/28 06:07:32;;;;;;;3.03;2.10;;;;;;;;;;5034859;28;20182;-70
2022/07/28 06:10:09;;;;;;;3.08;1.63;;;;;;;;;;5034877;28;20068;-71
2022/07/28 06:12:46;;;;;;;1.90;1.57;;;;;;;;;;5034533;28;20041;-71
2022/07/28 06:15:17;;;;;;;1.50;1.40;;;;;;;;;;5052872;28;20095;-73
2022/07/28 06:17:44;;;;;;;2.33;1.83;;;;;;;;;;5042107;28;20068;-70
2022/07/28 06:20:10;;;;;;;2.28;1.65;;;;;;;;;;5054946;28;20081;-70
2022/07/28 06:22:44;;;;;;;3.67;1.50;;;;;;;;;;5054539;28;20078;-70
2022/07/28 06:25:11;;;;;;;2.67;1.70;;;;;;;;;;5054760;28;20127;-71
2022/07/28 06:27:37;;;;;;;2.70;1.50;;;;;;;;;;5054842;28;20045;-70
2022/07/28 06:30:04;;;;;;;3.17;1.60;;;;;;;;;;5054219;28;20045;-70
2022/07/28 06:32:31;;;;;;;1.73;1.40;;;;;;;;;;5052454;28;20127;-71
2022/07/28 06:34:57;;;;;;;2.35;1.60;;;;;;;;;;5034247;28;20081;-70
2022/07/28 06:37:24;;;;;;;2.95;1.60;;;;;;;;;;5049729;28;20100;-70
2022/07/28 06:39:50;;;;;;;2.10;1.80;;;;;;;;;;5038072;28;20068;-71
2022/07/28 06:42:17;;;;;;;3.67;1.65;;;;;;;;;;5032905;28;20080;-70
2022/07/28 06:44:43;;;;;;;5.03;1.55;;;;;;;;;;5033618;28;20072;-70
2022/07/28 06:47:24;;;;;;;4.68;1.35;;;;;;;;;;5038457;28;20091;-71
2022/07/28 06:49:51;;;;;;;3.22;1.65;;;;;;;;;;5043184;28;20107;-71
2022/07/28 06:52:19;;;;;;;1.58;1.30;;;;;;;;;;5033359;28;20088;-70
2022/07/28 06:54:47;;;;;;;2.63;1.17;;;;;;;;;;5040244;28;20076;-71
2022/07/28 06:57:14;;;;;;;2.25;1.70;;;;;;;;;;5053896;28;20056;-71
2022/07/28 06:59:42;;;;;;;2.28;1.35;;;;;;;;;;5054118;28;20055;-72
2022/07/28 07:02:08;;;;;;;2.10;1.40;;;;;;;;;;5054244;28;20076;-71
2022/07/28 07:04:35;;;;;;;2.30;1.38;;;;;;;;;;5036161;28;20073;-72
2022/07/28 07:07:02;;;;;;;4.53;1.63;;;;;;;;;;5045919;28;20115;-71
2022/07/28 07:09:40;;;;;;;2.00;1.30;;;;;;;;;;5044027;28;20054;-70
2022/07/28 07:12:06;;;;;;;1.73;1.48;;;;;;;;;;5052792;28;20053;-71
2022/07/28 07:14:33;;;;;;;2.05;1.30;;;;;;;;;;5044961;28;20049;-71
2022/07/28 07:16:59;;;;;;;4.68;1.60;;;;;;;;;;5033787;28;20084;-71
2022/07/28 07:19:25;;;;;;;2.60;1.50;;;;;;;;;;5052985;28;20083;-71
2022/07/28 07:21:52;;;;;;;3.83;1.60;;;;;;;;;;5052585;28;20493;-71
2022/07/28 07:24:18;;;;;;;2.42;1.45;;;;;;;;;;5035363;28;20042;-71
2022/07/28 07:26:47;;;;;;;1.85;1.33;;;;;;;;;;5048932;28;20095;-71
2022/07/28 07:29:14;;;;;;;3.85;1.40;;;;;;;;;;5039795;28;20474;-71
2022/07/28 07:31:40;;;;;;;1.90;1.53;;;;;;;;;;5040340;28;20060;-71
2022/07/28 07:34:07;;;;;;;3.22;1.83;;;;;;;;;;5040359;28;20052;-71
2022/07/28 07:36:33;;;;;;;3.03;1.60;;;;;;;;;;5042867;28;20077;-71
2022/07/28 07:39:00;;;;;;;5.82;1.80;;;;;;;;;;5049876;28;20152;-73
2022/07/28 07:41:26;;;;;;;5.32;1.63;;;;;;;;;;5032577;28;20046;-71
2022/07/28 07:43:53;;;;;;;2.83;1.92;;;;;;;;;;5032784;28;20069;-71
2022/07/28 07:46:19;;;;;;;10.07;2.10;;;;;;;;;;5035106;28;20081;-71
2022/07/28 07:48:46;;;;;;;4.70;1.80;;;;;;;;;;5053169;28;20056;-70
2022/07/28 07:51:12;;;;;;;3.72;2.13;;;;;;;;;;5052619;28;20059;-71
2022/07/28 07:53:41;;;;;;;3.05;1.73;;;;;;;;;;5052853;28;20057;-72
2022/07/28 07:56:07;;;;;;;6.90;1.73;;;;;;;;;;5052806;28;20049;-71
2022/07/28 07:58:33;;;;;;;2.47;1.83;;;;;;;;;;5039459;28;20084;-71
2022/07/28 08:01:00;;;;;;;2.45;1.45;;;;;;;;;;5033847;28;20799;-72
2022/07/28 08:03:27;;;;;;;3.92;1.60;;;;;;;;;;5031815;28;20049;-71
2022/07/28 08:05:55;;;;;;;3.95;1.83;;;;;;;;;;5032357;28;20208;-71
2022/07/28 08:08:22;;;;;;;4.10;1.83;;;;;;;;;;5029801;28;20041;-71
2022/07/28 08:10:49;;;;;;;2.58;1.63;;;;;;;;;;5036014;28;20114;-71
2022/07/28 08:13:19;;;;;;;3.45;2.08;;;;;;;;;;5052402;28;20405;-70
2022/07/28 08:15:45;;;;;;;3.70;1.70;;;;;;;;;;5040682;28;20478;-71
2022/07/28 08:18:12;;;;;;;1.48;1.30;;;;;;;;;;5042665;28;20047;-71
2022/07/28 08:20:38;;;;;;;6.28;1.98;;;;;;;;;;5051584;28;20604;-74
2022/07/28 08:23:07;;;;;;;3.75;1.50;;;;;;;;;;5051740;28;20080;-72
2022/07/28 08:25:37;;;;;;;2.60;1.17;;;;;;;;;;5051652;28;20076;-72
2022/07/28 08:28:04;;;;;;;5.03;1.27;;;;;;;;;;5051737;28;20048;-71
2022/07/28 08:30:30;;;;;;;6.00;1.80;;;;;;;;;;5051854;28;20052;-71
2022/07/28 08:32:58;;;;;;;1.88;1.45;;;;;;;;;;5032055;28;20052;-72
2022/07/28 08:35:25;;;;;;;1.92;1.27;;;;;;;;;;5031650;28;20111;-72
2022/07/28 08:38:03;;;;;;;2.28;1.50;;;;;;;;;;5041872;28;20051;-72
2022/07/28 08:40:31;;;;;;;6.93;2.03;;;;;;;;;;5050992;28;20067;-71
2022/07/28 08:43:10;;;;;;;3.92;1.75;;;;;;;;;;5034580;28;20059;-71
2022/07/28 08:45:38;;;;;;;4.93;1.70;;;;;;;;;;5033628;28;20111;-69
2022/07/28 08:48:05;;;;;;;4.53;1.90;;;;;;;;;;5042945;28;20076;-69
2022/07/28 08:50:36;;;;;;;2.78;1.40;;;;;;;;;;5045186;28;20052;-69
2022/07/28 08:53:03;;;;;;;4.95;2.20;;;;;;;;;;5051599;28;20477;-69
2022/07/28 08:55:30;;;;;;;5.15;1.60;;;;;;;;;;5051636;28;20088;-69
2022/07/28 08:57:58;;;;;;;4.60;2.08;;;;;;;;;;5050990;28;20493;-69
2022/07/28 09:00:25;;;;;;;4.13;1.60;;;;;;;;;;5051583;28;20049;-70
2022/07/28 09:02:52;;;;;;;2.25;1.73;;;;;;;;;;5051412;28;20053;-76
2022/07/28 09:05:20;;;;;;;3.60;1.70;;;;;;;;;;5051395;28;20055;-77
2022/07/28 09:07:48;;;;;;;3.15;1.52;;;;;;;;;;5047783;28;20090;-77
2022/07/28 09:10:20;;;;;;;4.25;2.00;;;;;;;;;;5051386;28;20132;-77
2022/07/28 09:12:46;;;;;;;12.97;2.97;;;;;;;;;;5051029;28;20489;-77
2022/07/28 09:15:12;;;;;;;3.88;1.92;;;;;;;;;;5046285;28;20096;-77
2022/07/28 09:17:39;;;;;;;2.87;1.50;;;;;;;;;;5041540;28;20118;-77
2022/07/28 09:20:06;;;;;;;2.70;1.55;;;;;;;;;;5051327;28;20451;-78
2022/07/28 09:22:52;;;;;;;3.83;1.80;;;;;;;;;;5051008;28;20095;-78
2022/07/28 09:25:19;;;;;;;4.00;1.70;;;;;;;;;;5050986;28;20501;-78
2022/07/28 09:27:46;;;;;;;2.93;1.30;;;;;;;;;;5050870;28;20084;-77
2022/07/28 09:30:12;;;;;;;3.88;1.50;;;;;;;;;;5049652;28;20326;-76
2022/07/28 09:32:39;;;;;;;3.30;1.50;;;;;;;;;;5050796;28;20085;-76
2022/07/28 09:35:18;;;;;;;3.05;1.42;;;;;;;;;;5049609;28;20509;-77
2022/07/28 09:37:45;;;;;;;3.33;1.50;;;;;;;;;;5049471;28;20520;-76
2022/07/28 09:40:12;;;;;;;5.65;1.65;;;;;;;;;;5049819;28;20085;-76
2022/07/28 09:42:46;;;;;;;3.17;2.00;;;;;;;;;;5050869;28;20087;-68
2022/07/28 09:45:12;;;;;;;3.67;1.70;;;;;;;;;;5045659;28;20138;-68
2022/07/28 09:47:48;;;;;;;4.07;1.80;;;;;;;;;;5032417;28;20136;-70
2022/07/28 09:50:20;;;;;;;2.88;1.23;;;;;;;;;;5029123;28;20053;-69
2022/07/28 09:52:46;;;;;;;2.10;1.38;;;;;;;;;;5031894;28;20083;-69
2022/07/28 09:55:13;;;;;;;2.47;1.50;;;;;;;;;;5050860;28;20088;-74
2022/07/28 09:57:39;;;;;;;3.78;1.48;;;;;;;;;;5050816;28;20330;-75
2022/07/28 10:00:10;;;;;;;4.70;2.00;;;;;;;;;;5050519;28;20041;-72
2022/07/28 10:02:37;;;;;;;4.35;1.50;;;;;;;;;;5044730;28;20176;-75
2022/07/28 10:05:04;;;;;;;;;;;;;;;;;;5032352;28;20493;-70
2022/07/28 10:07:31;;;;;;;2.92;1.33;;;;;;;;;;5028290;28;20542;-70
2022/07/28 10:10:02;;;;;;;2.25;1.23;;;;;;;;;;5030309;28;20081;-71
2022/07/28 10:12:30;;;;;;;2.45;1.80;;;;;;;;;;5030307;28;20049;-71
2022/07/28 10:16:09;;;;;;;2.60;1.25;;;;;;;;;;5030718;28;20179;-70
2022/07/28 10:17:56;;;;;;;1.85;1.58;;;;;;;;;;5038972;28;20049;-74
2022/07/28 10:20:23;;;;;;;4.00;1.63;;;;;;;;;;5049371;28;20547;-74
2022/07/28 10:22:51;;;;;;;2.50;1.55;;;;;;;;;;5045146;28;20073;-74
2022/07/28 10:25:20;;;;;;;3.38;1.60;;;;;;;;;;5043393;28;20143;-73
2022/07/28 10:27:47;;;;;;;4.05;1.80;;;;;;;;;;5046313;28;20081;-73
2022/07/28 10:30:14;;;;;;;3.28;1.45;;;;;;;;;;5053310;28;20103;-72
2022/07/28 10:32:41;;;;;;;2.40;1.23;;;;;;;;;;5053082;28;20045;-72
2022/07/28 10:35:11;;;;;;;2.17;1.08;;;;;;;;;;5053109;28;20394;-72
2022/07/28 10:37:42;;;;;;;2.85;1.50;;;;;;;;;;5054252;28;20132;-72
2022/07/28 10:40:09;;;;;;;2.90;1.60;;;;;;;;;;5054622;28;20044;-73
2022/07/28 10:42:37;;;;;;;1.42;1.30;;;;;;;;;;5054697;28;20084;-73
2022/07/28 10:45:04;;;;;;;2.53;1.35;;;;;;;;;;5054190;28;20080;-72
2022/07/28 10:47:30;;;;;;;3.13;1.23;;;;;;;;;;5054181;28;20064;-72
2022/07/28 10:50:02;;;;;;;4.43;1.70;;;;;;;;;;5054254;28;20053;-72
2022/07/28 10:52:29;;;;;;;3.22;1.48;;;;;;;;;;5054141;28;20071;-72
2022/07/28 10:55:17;;;;;;;2.85;1.27;;;;;;;;;;5054076;28;20063;-72
2022/07/28 10:58:04;;;;;;;2.05;1.27;;;;;;;;;;5054239;28;20064;-72
2022/07/28 11:00:48;;;;;;;2.88;1.25;;;;;;;;;;5053968;28;20481;-72
2022/07/28 11:03:38;;;;;;;2.38;1.20;;;;;;;;;;5054146;28;20501;-73
2022/07/28 11:06:24;;;;;;;2.67;1.63;;;;;;;;;;5054196;28;20491;-73
2022/07/28 11:08:51;;;;;;;5.32;1.30;;;;;;;;;;5054036;28;20059;-72
2022/07/28 11:11:36;;;;;;;2.22;1.10;;;;;;;;;;5053412;28;20079;-72
2022/07/28 11:14:22;;;;;;;2.25;1.10;;;;;;;;;;5049485;28;20065;-73
2022/07/28 11:17:10;;;;;;;2.25;1.17;;;;;;;;;;5053409;28;20067;-72
2022/07/28 11:19:36;;;;;;;1.73;1.20;;;;;;;;;;5053685;28;20060;-73
2022/07/28 11:22:27;;;;;;;2.92;1.40;;;;;;;;;;5053284;28;20084;-73
2022/07/28 11:24:56;;;;;;;3.05;1.27;;;;;;;;;;5039475;28;20049;-78
2022/07/28 11:27:38;;;;;;;3.65;1.25;;;;;;;;;;5035631;28;20493;-73
2022/07/28 11:30:05;;;;;;;3.33;1.13;;;;;;;;;;5052863;28;20099;-73
2022/07/28 11:32:32;;;;;;;;;;;;;;;;;;5053212;28;20576;-76
2022/07/28 11:35:08;;;;;;;7.55;1.30;;;;;;;;;;5052844;28;19921;-78
2022/07/28 11:37:34;;;;;;;;;;;;;;;;;;5052233;28;20175;-75
2022/07/28 11:40:20;;;;;;;2.75;1.13;;;;;;;;;;5052724;28;19968;-74
2022/07/28 11:42:47;;;;;;;1.73;1.02;;;;;;;;;;5052526;28;20119;-74
2022/07/28 11:45:21;;;;;;;1.40;0.80;;;;;;;;;;5044330;28;20103;-76
2022/07/28 11:48:08;;;;;;;1.95;0.95;;;;;;;;;;5032783;28;20441;-66
2022/07/28 11:50:35;;;;;;;2.80;0.80;;;;;;;;;;5029384;28;20151;-66
2022/07/28 11:53:01;;;;;;;2.78;1.15;;;;;;;;;;5030545;28;20341;-66
2022/07/28 11:55:29;;;;;;;1.00;0.88;;;;;;;;;;5031952;28;20053;-69
2022/07/28 11:58:23;;;;;;;2.20;0.80;;;;;;;;;;5030720;28;20425;-65
2022/07/28 12:01:07;;;;;;;4.05;1.00;;;;;;;;;;5031986;28;20084;-66
2022/07/28 12:03:40;;;;;;;1.30;1.10;;;;;;;;;;5031974;28;20467;-66
2022/07/28 12:06:15;;;;;;;2.95;1.02;;;;;;;;;;5031027;28;20054;-66
2022/07/28 12:08:55;;;;;;;2.03;0.82;;;;;;;;;;5032386;28;20553;-67
2022/07/28 12:11:24;;;;;;;1.63;1.10;;;;;;;;;;5032149;28;20081;-64
2022/07/28 12:14:01;;;;;;;1.77;0.90;;;;;;;;;;5031504;28;20083;-67
2022/07/28 12:16:31;;;;;;;4.00;1.35;;;;;;;;;;5031685;28;20077;-66
2022/07/28 12:19:01;;;;;;;2.03;1.20;;;;;;;;;;5049160;28;20041;-66
2022/07/28 12:21:34;;;;;;;2.17;1.27;;;;;;;;;;5051662;28;20465;-65
2022/07/28 12:24:00;;;;;;;1.63;1.08;;;;;;;;;;5046233;28;20045;-65
2022/07/28 12:26:36;;;;;;;2.70;0.90;;;;;;;;;;5031724;28;20048;-65
2022/07/28 12:29:06;;;;;;;1.20;0.80;;;;;;;;;;5037537;28;20083;-65
2022/07/28 12:31:36;;;;;;;2.63;0.90;;;;;;;;;;5051733;28;20076;-65
2022/07/28 12:34:06;;;;;;;2.75;1.30;;;;;;;;;;5051925;28;20052;-66
2022/07/28 12:36:33;;;;;;;5.50;0.98;;;;;;;;;;5051911;28;20084;-65
2022/07/28 12:39:00;;;;;;;2.35;1.17;;;;;;;;;;5051488;28;20084;-65
2022/07/28 12:41:33;;;;;;;3.75;1.60;;;;;;;;;;5051671;28;20082;-65
2022/07/28 12:44:02;;;;;;;2.78;1.10;;;;;;;;;;5051516;28;20556;-65
2022/07/28 12:46:31;;;;;;;3.72;1.10;;;;;;;;;;5051322;28;20079;-65
2022/07/28 12:48:59;;;;;;;3.60;1.17;;;;;;;;;;5034884;28;20060;-66
2022/07/28 12:51:39;;;;;;;1.38;0.90;;;;;;;;;;5035319;28;20052;-66
2022/07/28 12:54:09;;;;;;;2.25;1.10;;;;;;;;;;5050496;28;20603;-66
2022/07/28 12:56:48;;;;;;;3.45;1.35;;;;;;;;;;5050877;28;20081;-65
2022/07/28 12:59:17;;;;;;;2.05;0.82;;;;;;;;;;5051869;28;20470;-65
2022/07/28 13:01:43;;;;;;;3.88;1.10;;;;;;;;;;5047355;28;20089;-66
2022/07/28 13:04:11;;;;;;;4.82;1.20;;;;;;;;;;5042416;28;20048;-66
2022/07/28 13:06:39;;;;;;;4.38;1.40;;;;;;;;;;5031566;28;20049;-66
2022/07/28 13:09:06;;;;;;;;;;;;;;;;;;5031712;28;20088;-66
2022/07/28 13:11:32;;;;;;;2.33;1.15;;;;;;;;;;5031764;28;19975;-65
2022/07/28 13:14:12;;;;;;;4.30;1.33;;;;;;;;;;5037106;28;20089;-65
2022/07/28 13:16:39;;;;;;;1.83;1.05;;;;;;;;;;5045024;28;20044;-66
2022/07/28 13:19:07;;;;;;;3.03;1.10;;;;;;;;;;5051483;28;20047;-65
2022/07/28 13:21:44;;;;;;;2.85;1.10;;;;;;;;;;5051708;28;20155;-65
2022/07/28 13:24:24;;;;;;;2.47;1.13;;;;;;;;;;5051644;28;20044;-65
2022/07/28 13:26:50;;;;;;;2.35;1.13;;;;;;;;;;5048783;28;20087;-65
2022/07/28 13:29:18;;;;;;;1.90;0.90;;;;;;;;;;5051704;28;20080;-66
2022/07/28 13:31:44;;;;;;;1.90;0.82;;;;;;;;;;5051576;28;20285;-66
2022/07/28 13:34:11;;;;;;;1.15;0.75;;;;;;;;;;5051593;28;20056;-66
2022/07/28 13:36:38;;;;;;;2.17;0.68;;;;;;;;;;5035565;28;20088;-65
2022/07/28 13:39:05;;;;;;;3.57;0.83;;;;;;;;;;5050193;28;20080;-65
2022/07/28 13:41:31;;;;;;;1.55;0.90;;;;;;;;;;5051297;28;20558;-65
2022/07/28 13:44:18;;;;;;;2.08;1.83;;;;;;;;;;5051569;28;20132;-65
2022/07/28 13:46:44;;;;;;;2.63;0.80;;;;;;;;;;5051274;28;20458;-65
2022/07/28 13:49:15;;;;;;;4.70;1.20;;;;;;;;;;5051282;28;20052;-65
2022/07/28 13:51:42;;;;;;;1.23;0.97;;;;;;;;;;5051226;28;20083;-65
2022/07/28 13:54:08;;;;;;;1.57;0.80;;;;;;;;;;5039113;28;20329;-65
2022/07/28 13:56:36;;;;;;;2.95;1.00;;;;;;;;;;5050138;28;20764;-65
2022/07/28 13:59:03;;;;;;;1.55;0.90;;;;;;;;;;5050081;28;20099;-64
2022/07/28 14:01:34;;;;;;;2.75;0.82;;;;;;;;;;5054059;28;20056;-64
2022/07/28 14:04:03;;;;;;;2.85;1.17;;;;;;;;;;5055185;28;20467;-64
2022/07/28 14:06:29;;;;;;;2.83;1.00;;;;;;;;;;5027916;28;20132;-64
2022/07/28 14:08:56;;;;;;;1.65;0.95;;;;;;;;;;5028052;28;20501;-64
2022/07/28 14:11:22;;;;;;;3.47;1.20;;;;;;;;;;5034291;28;20080;-64
2022/07/28 14:13:50;;;;;;;1.92;1.02;;;;;;;;;;5034541;28;20103;-64
2022/07/28 14:16:21;;;;;;;3.58;1.08;;;;;;;;;;5053631;28;20053;-64
2022/07/28 14:18:48;;;;;;;3.08;1.02;;;;;;;;;;5054432;28;20049;-64
2022/07/28 14:21:15;;;;;;;3.72;1.10;;;;;;;;;;5054524;28;20053;-64
2022/07/28 14:23:41;;;;;;;1.88;1.15;;;;;;;;;;5051098;28;20080;-64
2022/07/28 14:26:08;;;;;;;2.95;0.95;;;;;;;;;;5054601;28;20079;-64
2022/07/28 14:28:55;;;;;;;2.80;0.82;;;;;;;;;;5047190;28;20049;-65
2022/07/28 14:31:21;;;;;;;1.33;1.13;;;;;;;;;;5033664;28;20497;-64
2022/07/28 14:33:48;;;;;;;1.98;1.00;;;;;;;;;;5033871;28;20115;-64
2022/07/28 14:36:20;;;;;;;1.80;1.00;;;;;;;;;;5033593;28;20417;-65
2022/07/28 14:38:47;;;;;;;2.72;0.98;;;;;;;;;;5033786;28;20038;-65
2022/07/28 14:41:20;;;;;;;1.30;0.80;;;;;;;;;;5032287;28;20060;-64
2022/07/28 14:43:47;;;;;;;3.73;0.90;;;;;;;;;;5047447;28;20123;-64
2022/07/28 14:46:13;;;;;;;2.00;0.90;;;;;;;;;;5053498;28;20060;-64
2022/07/28 14:48:46;;;;;;;1.75;0.80;;;;;;;;;;5054026;28;20098;-63
2022/07/28 14:51:13;;;;;;;2.65;1.05;;;;;;;;;;5053557;28;20516;-64
2022/07/28 14:53:41;;;;;;;1.57;0.80;;;;;;;;;;5051665;28;20070;-64
2022/07/28 14:56:15;;;;;;;2.45;0.88;;;;;;;;;;5033493;28;20069;-64
2022/07/28 14:58:42;;;;;;;2.03;1.02;;;;;;;;;;5033070;28;20055;-64